Terminal Aerodrome Forecast
Issued by NWS

Home | Current Version | Previous Version | Text Only | Print | Product List | Glossary Off
Versions: 1 2 3 4 5 6 7 8 9 10 11 12 13 14 15 16 17 18 19

000
FTUS43 KBIS 060208 AAA
TAFDIK
TAF AMD
KDIK 060208Z 0602/0624 34007KT 2SM FU SCT060
     FM060500 33008KT 3SM FU OVC050
     FM061400 33010KT P6SM SCT050 BKN100=

USA.gov is the U.S. government's official web portal to all federal, state and local government web resources and services.